createdAt,value
2023-08-22T00:01:49.991Z,22.76
2023-08-22T00:04:17.441Z,22.64
2023-08-22T00:06:44.854Z,22.63
2023-08-22T00:09:13.034Z,22.64
2023-08-22T00:11:40.473Z,22.63
2023-08-22T00:14:07.761Z,22.66
2023-08-22T00:16:35.153Z,22.62
2023-08-22T00:19:02.577Z,22.62
2023-08-22T00:21:31.662Z,22.49
2023-08-22T00:23:59.916Z,22.49
2023-08-22T00:26:27.544Z,22.46
2023-08-22T00:28:54.761Z,22.44
2023-08-22T00:31:22.350Z,22.35
2023-08-22T00:33:50.495Z,22.34
2023-08-22T00:36:18.124Z,22.28
2023-08-22T00:38:46.317Z,22.19
2023-08-22T00:41:13.706Z,22.13
2023-08-22T00:43:41.093Z,22.10
2023-08-22T00:46:08.668Z,22.05
2023-08-22T00:48:36.628Z,22.00
2023-08-22T00:51:05.467Z,22.04
2023-08-22T00:53:34.288Z,22.02
2023-08-22T00:56:01.921Z,21.96
2023-08-22T00:58:29.680Z,22.03
2023-08-22T01:00:57.286Z,22.03
2023-08-22T01:03:25.059Z,22.01
2023-08-22T01:05:59.658Z,21.93
2023-08-22T01:08:33.118Z,21.91
2023-08-22T01:11:15.739Z,21.90
2023-08-22T01:13:45.004Z,21.88
2023-08-22T01:16:14.629Z,21.89
2023-08-22T01:18:43.132Z,21.83
2023-08-22T01:21:19.324Z,21.87
2023-08-22T01:23:46.960Z,21.81
2023-08-22T01:26:14.854Z,21.82
2023-08-22T01:28:56.980Z,21.69
2023-08-22T01:31:32.641Z,21.65
2023-08-22T01:34:07.855Z,21.63
2023-08-22T01:36:37.933Z,21.59
2023-08-22T01:39:09.024Z,21.47
2023-08-22T01:44:05.160Z,21.50
2023-08-22T01:46:32.826Z,21.46
2023-08-22T01:49:00.455Z,21.54
2023-08-22T01:51:27.887Z,21.47
2023-08-22T01:53:55.261Z,21.51
2023-08-22T01:56:23.555Z,21.44
2023-08-22T02:01:18.976Z,21.41
2023-08-22T02:03:47.563Z,21.30
2023-08-22T02:06:15.137Z,21.33
2023-08-22T02:08:42.585Z,21.35
2023-08-22T02:11:09.958Z,21.35
2023-08-22T02:13:37.333Z,21.35
2023-08-22T02:16:04.822Z,21.35
2023-08-22T02:18:32.369Z,21.35
2023-08-22T02:21:03.823Z,21.36
2023-08-22T02:23:32.860Z,21.29
2023-08-22T02:26:00.170Z,21.25
2023-08-22T02:28:27.361Z,21.30
2023-08-22T02:30:57.982Z,21.28
2023-08-22T02:33:25.573Z,21.34
2023-08-22T02:35:53.141Z,21.33
2023-08-22T02:38:20.705Z,21.34
2023-08-22T02:40:49.872Z,21.29
2023-08-22T02:43:17.857Z,21.23
2023-08-22T02:45:46.450Z,21.17
2023-08-22T02:48:14.156Z,21.18
2023-08-22T02:50:41.660Z,21.21
2023-08-22T02:53:11.054Z,21.24
2023-08-22T02:55:39.599Z,21.20
2023-08-22T02:58:07.221Z,21.18
2023-08-22T03:00:36.784Z,21.18
2023-08-22T03:03:04.791Z,21.13
2023-08-22T03:05:33.289Z,21.02
2023-08-22T03:08:00.714Z,21.01
2023-08-22T03:10:28.166Z,20.98
2023-08-22T03:12:56.437Z,21.06
2023-08-22T03:15:24.216Z,20.96
2023-08-22T03:17:51.706Z,20.87
2023-08-22T03:20:19.217Z,20.84
2023-08-22T03:22:46.739Z,20.88
2023-08-22T03:25:15.007Z,20.88
2023-08-22T03:27:42.931Z,20.90
2023-08-22T03:30:10.880Z,20.94
2023-08-22T03:32:38.564Z,20.99
2023-08-22T03:35:07.904Z,20.99
2023-08-22T03:37:38.497Z,21.03
2023-08-22T03:40:06.655Z,20.99
2023-08-22T03:42:34.462Z,21.00
2023-08-22T03:45:07.866Z,20.97
2023-08-22T03:47:35.245Z,20.95
2023-08-22T03:50:03.389Z,21.04
2023-08-22T03:52:32.077Z,21.16
2023-08-22T03:54:59.491Z,21.17
2023-08-22T03:57:26.922Z,21.09
2023-08-22T03:59:55.673Z,21.05
2023-08-22T04:02:23.101Z,21.00
2023-08-22T04:04:50.447Z,21.02
2023-08-22T04:07:17.805Z,21.03
2023-08-22T04:09:45.275Z,21.04
2023-08-22T04:12:12.545Z,21.07
2023-08-22T04:14:40.581Z,21.16
2023-08-22T04:17:07.973Z,21.13
2023-08-22T04:19:35.306Z,21.13
2023-08-22T04:22:02.746Z,21.19
2023-08-22T04:24:30.322Z,21.16
2023-08-22T04:26:58.281Z,21.17
2023-08-22T04:29:25.918Z,21.26
2023-08-22T04:31:53.302Z,21.28
2023-08-22T04:34:21.019Z,21.45
2023-08-22T04:36:55.288Z,21.52
2023-08-22T04:39:22.730Z,21.48
2023-08-22T04:41:54.678Z,21.49
2023-08-22T04:44:28.314Z,21.48
2023-08-22T04:46:55.736Z,21.54
2023-08-22T04:49:23.118Z,21.72
2023-08-22T04:51:50.645Z,21.88
2023-08-22T04:54:17.994Z,21.91
2023-08-22T04:56:45.348Z,21.99
2023-08-22T04:59:12.630Z,22.00
2023-08-22T05:01:40.407Z,21.96
2023-08-22T05:04:08.775Z,22.03
2023-08-22T05:06:36.329Z,22.05
2023-08-22T05:09:08.021Z,21.97
2023-08-22T05:11:36.004Z,21.97
2023-08-22T05:14:04.814Z,21.98
2023-08-22T05:16:32.295Z,22.04
2023-08-22T05:19:00.008Z,22.06
2023-08-22T05:21:27.450Z,22.05
2023-08-22T05:23:54.816Z,22.09
2023-08-22T05:26:22.309Z,22.22
2023-08-22T05:28:49.738Z,22.32
2023-08-22T05:31:24.811Z,22.34
2023-08-22T05:33:53.236Z,22.43
2023-08-22T05:36:20.638Z,22.48
2023-08-22T05:38:47.975Z,22.47
2023-08-22T05:41:15.815Z,22.48
2023-08-22T05:43:43.636Z,22.51
2023-08-22T05:46:11.103Z,22.57
2023-08-22T05:48:39.359Z,22.71
2023-08-22T05:51:07.428Z,22.85
2023-08-22T05:53:34.898Z,22.92
2023-08-22T05:56:02.285Z,22.90
2023-08-22T05:58:31.052Z,23.00
2023-08-22T06:00:59.308Z,23.01
2023-08-22T06:03:29.714Z,23.14
2023-08-22T06:05:57.514Z,23.15
2023-08-22T06:08:24.965Z,23.22
2023-08-22T06:10:52.377Z,23.28
2023-08-22T06:13:20.076Z,23.40
2023-08-22T06:15:49.555Z,23.52
2023-08-22T06:18:18.897Z,23.65
2023-08-22T06:20:47.457Z,23.63
2023-08-22T06:23:15.120Z,23.55
2023-08-22T06:25:42.559Z,23.64
2023-08-22T06:28:09.952Z,23.82
2023-08-22T06:30:37.367Z,24.07
2023-08-22T06:33:06.162Z,24.18
2023-08-22T06:35:33.716Z,24.25
2023-08-22T06:38:00.978Z,24.28
2023-08-22T06:40:28.280Z,24.27
2023-08-22T06:42:55.631Z,24.27
2023-08-22T06:45:31.470Z,24.31
2023-08-22T06:47:59.076Z,24.23
2023-08-22T06:50:26.367Z,24.15
2023-08-22T06:52:53.857Z,24.18
2023-08-22T06:55:21.434Z,24.26
2023-08-22T06:57:48.988Z,24.36
2023-08-22T07:00:18.166Z,24.43
2023-08-22T07:02:47.647Z,24.47
2023-08-22T07:05:16.208Z,24.51
2023-08-22T07:07:44.166Z,24.50
2023-08-22T07:10:14.988Z,24.70
2023-08-22T07:12:45.054Z,24.53
2023-08-22T07:15:12.815Z,24.51
2023-08-22T07:17:43.691Z,24.56
2023-08-22T07:20:12.905Z,24.64
2023-08-22T07:22:40.810Z,24.75
2023-08-22T07:25:08.669Z,24.95
2023-08-22T07:27:36.106Z,25.02
2023-08-22T07:30:04.941Z,25.25
2023-08-22T07:32:34.175Z,25.41
2023-08-22T07:35:01.761Z,25.44
2023-08-22T07:37:29.370Z,25.43
2023-08-22T07:39:57.538Z,25.49
2023-08-22T07:42:25.011Z,25.67
2023-08-22T07:44:52.379Z,25.55
2023-08-22T07:47:19.718Z,25.69
2023-08-22T07:49:47.053Z,25.72
2023-08-22T07:52:14.415Z,25.71
2023-08-22T07:54:41.857Z,25.80
2023-08-22T07:57:18.441Z,25.84
2023-08-22T07:59:46.964Z,25.85
2023-08-22T08:02:14.452Z,25.91
2023-08-22T08:04:42.181Z,26.12
2023-08-22T08:07:09.657Z,26.25
2023-08-22T08:09:37.157Z,26.33
2023-08-22T08:12:07.944Z,26.54
2023-08-22T08:14:35.476Z,26.73
2023-08-22T08:17:02.873Z,26.91
2023-08-22T08:19:30.540Z,27.12
2023-08-22T08:21:57.971Z,27.27
2023-08-22T08:24:25.445Z,27.44
2023-08-22T08:26:52.710Z,27.64
2023-08-22T08:29:20.089Z,27.78
2023-08-22T08:31:48.789Z,27.95
2023-08-22T08:34:16.317Z,28.10
2023-08-22T08:36:43.724Z,28.20
2023-08-22T08:39:11.316Z,28.30
2023-08-22T08:41:44.312Z,28.31
2023-08-22T08:44:14.976Z,28.39
2023-08-22T08:46:44.307Z,28.34
2023-08-22T08:49:11.966Z,28.43
2023-08-22T08:51:39.935Z,28.57
2023-08-22T08:54:07.815Z,28.66
2023-08-22T08:56:35.330Z,28.64
2023-08-22T08:59:02.682Z,28.84
2023-08-22T09:01:31.413Z,28.89
2023-08-22T09:03:58.810Z,29.00
2023-08-22T09:06:26.514Z,29.12
2023-08-22T09:09:11.659Z,29.12
2023-08-22T09:11:47.924Z,29.35
2023-08-22T09:14:22.508Z,29.46
2023-08-22T09:16:51.145Z,29.40
2023-08-22T09:19:18.829Z,29.40
2023-08-22T09:22:05.369Z,29.57
2023-08-22T09:24:36.469Z,29.61
2023-08-22T09:27:06.658Z,29.35
2023-08-22T09:29:35.869Z,29.27
2023-08-22T09:32:03.708Z,29.29
2023-08-22T09:34:32.199Z,29.28
2023-08-22T09:36:59.735Z,29.55
2023-08-22T09:39:27.657Z,29.75
2023-08-22T09:41:59.742Z,29.49
2023-08-22T09:44:28.618Z,29.51
2023-08-22T09:46:57.591Z,29.55
2023-08-22T09:49:25.294Z,29.56
2023-08-22T09:51:57.005Z,29.53
2023-08-22T09:54:24.805Z,29.44
2023-08-22T09:56:52.699Z,29.34
2023-08-22T09:59:21.064Z,29.16
2023-08-22T10:01:49.916Z,28.92
2023-08-22T10:04:19.694Z,28.96
2023-08-22T10:06:50.884Z,29.13
2023-08-22T10:09:19.297Z,29.28
2023-08-22T10:11:51.095Z,29.42
2023-08-22T10:14:24.658Z,29.53
2023-08-22T10:16:52.500Z,29.40
2023-08-22T10:19:21.839Z,29.58
2023-08-22T10:21:49.720Z,29.95
2023-08-22T10:24:21.379Z,30.02
2023-08-22T10:27:03.566Z,30.02
2023-08-22T10:29:35.004Z,30.06
2023-08-22T10:32:02.432Z,30.16
2023-08-22T10:34:35.983Z,30.17
2023-08-22T10:37:06.472Z,30.10
2023-08-22T10:39:42.456Z,30.18
2023-08-22T10:42:24.151Z,30.17
2023-08-22T10:44:57.230Z,30.00
2023-08-22T10:47:29.722Z,30.01
2023-08-22T10:50:13.752Z,29.81
2023-08-22T10:52:45.295Z,29.65
2023-08-22T10:55:14.852Z,29.61
2023-08-22T10:57:47.295Z,29.75
2023-08-22T11:00:21.024Z,29.67
2023-08-22T11:02:57.515Z,29.82
2023-08-22T11:05:25.618Z,29.77
2023-08-22T11:07:53.428Z,29.82
2023-08-22T11:10:24.275Z,29.98
2023-08-22T11:12:55.481Z,30.13
2023-08-22T11:15:23.302Z,30.18
2023-08-22T11:17:52.246Z,30.05
2023-08-22T11:20:24.747Z,29.91
2023-08-22T11:22:54.514Z,29.91
2023-08-22T11:25:29.779Z,30.03
2023-08-22T11:27:57.091Z,29.92
2023-08-22T11:30:24.589Z,29.80
2023-08-22T11:32:52.161Z,29.81
2023-08-22T11:35:19.580Z,29.94
2023-08-22T11:37:47.418Z,29.87
2023-08-22T11:40:16.387Z,29.82
2023-08-22T11:42:48.206Z,29.79
2023-08-22T11:45:22.109Z,29.88
2023-08-22T11:47:51.681Z,29.67
2023-08-22T11:50:26.252Z,29.85
2023-08-22T11:53:14.830Z,29.54
2023-08-22T11:55:50.469Z,29.41
2023-08-22T11:58:18.217Z,29.43
2023-08-22T12:00:45.897Z,29.33
2023-08-22T12:03:16.283Z,29.37
2023-08-22T12:05:50.120Z,29.42
2023-08-22T12:08:20.172Z,29.27
2023-08-22T12:10:50.127Z,29.48
2023-08-22T12:13:22.216Z,29.19
2023-08-22T12:15:50.561Z,29.19
2023-08-22T12:18:18.986Z,29.29
2023-08-22T12:20:49.876Z,29.13
2023-08-22T12:23:17.611Z,29.08
2023-08-22T12:25:45.109Z,29.18
2023-08-22T12:28:13.075Z,29.14
2023-08-22T12:30:40.807Z,29.18
2023-08-22T12:33:09.829Z,29.02
2023-08-22T12:35:39.761Z,28.86
2023-08-22T12:38:08.958Z,28.96
2023-08-22T12:40:36.703Z,28.97
2023-08-22T12:43:04.653Z,28.96
2023-08-22T12:45:32.478Z,29.01
2023-08-22T12:48:00.066Z,28.98
2023-08-22T12:50:27.461Z,29.08
2023-08-22T12:52:54.755Z,29.15
2023-08-22T12:55:23.175Z,28.82
2023-08-22T12:57:50.694Z,28.84
2023-08-22T13:00:18.504Z,28.84
2023-08-22T13:02:46.704Z,28.72
2023-08-22T13:05:15.409Z,28.64
2023-08-22T13:07:44.677Z,28.56
2023-08-22T13:10:13.285Z,28.59
2023-08-22T13:12:41.657Z,28.77
2023-08-22T13:15:09.544Z,28.72
2023-08-22T13:17:37.113Z,28.78
2023-08-22T13:20:06.275Z,28.73
2023-08-22T13:22:34.076Z,28.68
2023-08-22T13:25:01.478Z,28.50
2023-08-22T13:27:28.783Z,28.43
2023-08-22T13:29:56.433Z,28.48
2023-08-22T13:32:23.877Z,28.43
2023-08-22T13:34:51.543Z,28.46
2023-08-22T13:37:19.732Z,28.54
2023-08-22T13:39:47.455Z,28.57
2023-08-22T13:42:14.923Z,28.60
2023-08-22T13:44:42.641Z,28.47
2023-08-22T13:47:09.983Z,28.52
2023-08-22T13:49:37.370Z,28.40
2023-08-22T13:52:04.985Z,28.48
2023-08-22T13:54:32.417Z,28.42
2023-08-22T13:56:59.867Z,28.32
2023-08-22T13:59:28.908Z,28.46
2023-08-22T14:01:57.863Z,28.46
2023-08-22T14:04:25.368Z,28.36
2023-08-22T14:06:53.402Z,28.25
2023-08-22T14:11:51.253Z,28.39
2023-08-22T14:14:18.446Z,28.49
2023-08-22T14:16:45.688Z,28.43
2023-08-22T14:19:14.283Z,28.47
2023-08-22T14:21:47.722Z,28.54
2023-08-22T14:24:16.923Z,28.63
2023-08-22T14:26:45.337Z,28.61
2023-08-22T14:29:13.125Z,28.56
2023-08-22T14:31:40.766Z,28.46
2023-08-22T14:34:09.792Z,28.41
2023-08-22T14:36:37.280Z,28.32
2023-08-22T14:39:04.762Z,28.29
2023-08-22T14:41:32.306Z,28.24
2023-08-22T14:43:59.887Z,28.29
2023-08-22T14:46:27.526Z,28.15
2023-08-22T14:48:55.504Z,28.16
2023-08-22T14:51:23.007Z,28.23
2023-08-22T14:53:50.592Z,28.21
2023-08-22T14:56:17.967Z,28.31
2023-08-22T14:58:47.980Z,28.32
2023-08-22T15:01:18.570Z,28.39
2023-08-22T15:03:46.685Z,28.41
2023-08-22T15:06:14.130Z,28.35
2023-08-22T15:08:42.107Z,28.10
2023-08-22T15:11:09.617Z,28.17
2023-08-22T15:13:37.642Z,28.12
2023-08-22T15:16:05.142Z,28.13
2023-08-22T15:18:32.979Z,28.25
2023-08-22T15:21:01.358Z,28.56
2023-08-22T15:23:28.823Z,28.85
2023-08-22T15:25:57.075Z,28.85
2023-08-22T15:28:25.190Z,28.84
2023-08-22T15:30:59.005Z,28.86
2023-08-22T15:33:30.248Z,28.84
2023-08-22T15:36:01.338Z,28.63
2023-08-22T15:38:33.758Z,28.45
2023-08-22T15:41:03.057Z,28.52
2023-08-22T15:43:33.642Z,28.51
2023-08-22T15:46:01.500Z,28.07
2023-08-22T15:48:29.155Z,27.70
2023-08-22T15:50:58.992Z,27.16
2023-08-22T15:53:27.134Z,27.03
2023-08-22T15:55:54.628Z,26.80
2023-08-22T15:58:22.018Z,26.77
2023-08-22T16:00:49.373Z,26.69
2023-08-22T16:03:16.855Z,26.63
2023-08-22T16:05:44.434Z,26.59
2023-08-22T16:08:11.858Z,26.56
2023-08-22T16:10:39.440Z,26.46
2023-08-22T16:13:06.782Z,26.44
2023-08-22T16:15:34.192Z,26.34
2023-08-22T16:18:01.631Z,26.24
2023-08-22T16:20:31.764Z,26.22
2023-08-22T16:22:59.216Z,26.16
2023-08-22T16:25:26.591Z,26.07
2023-08-22T16:27:54.332Z,26.03
2023-08-22T16:30:21.972Z,26.01
2023-08-22T16:32:49.393Z,25.94
2023-08-22T16:35:17.946Z,25.86
2023-08-22T16:37:45.623Z,25.83
2023-08-22T16:40:13.335Z,25.81
2023-08-22T16:42:40.972Z,25.75
2023-08-22T16:45:08.744Z,25.70
2023-08-22T16:47:36.248Z,25.65
2023-08-22T16:50:06.086Z,25.53
2023-08-22T16:52:35.783Z,25.53
2023-08-22T16:55:05.019Z,25.50
2023-08-22T16:57:32.814Z,25.41
2023-08-22T17:00:00.269Z,25.37
2023-08-22T17:02:27.579Z,25.33
2023-08-22T17:04:54.883Z,25.30
2023-08-22T17:07:22.412Z,25.27
2023-08-22T17:09:49.817Z,25.21
2023-08-22T17:12:18.481Z,25.16
2023-08-22T17:14:45.954Z,25.11
2023-08-22T17:17:13.288Z,25.03
2023-08-22T17:19:40.685Z,25.05
2023-08-22T17:22:08.142Z,24.99
2023-08-22T17:24:35.535Z,25.00
2023-08-22T17:27:03.085Z,24.98
2023-08-22T17:29:30.648Z,24.92
2023-08-22T17:31:58.111Z,24.91
2023-08-22T17:34:25.400Z,24.85
2023-08-22T17:36:52.795Z,24.81
2023-08-22T17:39:20.067Z,24.77
2023-08-22T17:41:47.770Z,24.68
2023-08-22T17:44:15.613Z,24.64
2023-08-22T17:46:43.181Z,24.65
2023-08-22T17:49:10.615Z,24.60
2023-08-22T17:51:38.119Z,24.53
2023-08-22T17:54:07.909Z,24.47
2023-08-22T17:56:35.407Z,24.45
2023-08-22T17:59:03.126Z,24.38
2023-08-22T18:01:30.959Z,24.31
2023-08-22T18:03:58.483Z,24.30
2023-08-22T18:06:25.726Z,24.28
2023-08-22T18:08:53.252Z,24.22
2023-08-22T18:11:22.992Z,24.22
2023-08-22T18:13:50.430Z,24.22
2023-08-22T18:16:17.915Z,24.21
2023-08-22T18:18:45.994Z,24.17
2023-08-22T18:21:14.101Z,24.16
2023-08-22T18:23:42.302Z,24.13
2023-08-22T18:26:11.283Z,24.09
2023-08-22T18:28:39.768Z,24.05
2023-08-22T18:31:10.620Z,24.05
2023-08-22T18:33:38.857Z,24.01
2023-08-22T18:36:19.653Z,24.00
2023-08-22T18:38:48.030Z,23.96
2023-08-22T18:41:16.038Z,23.94
2023-08-22T18:43:45.481Z,23.89
2023-08-22T18:46:14.734Z,23.84
2023-08-22T18:48:42.987Z,23.80
2023-08-22T18:51:11.037Z,23.79
2023-08-22T18:53:38.522Z,23.77
2023-08-22T18:56:08.569Z,23.75
2023-08-22T18:58:38.640Z,23.73
2023-08-22T19:01:07.035Z,23.62
2023-08-22T19:03:35.063Z,23.58
2023-08-22T19:06:04.544Z,23.58
2023-08-22T19:08:32.756Z,23.58
2023-08-22T19:11:05.054Z,23.48
2023-08-22T19:13:32.735Z,23.48
2023-08-22T19:16:00.434Z,23.44
2023-08-22T19:18:27.928Z,23.38
2023-08-22T19:20:55.265Z,23.33
2023-08-22T19:23:22.832Z,23.26
2023-08-22T19:25:50.469Z,23.13
2023-08-22T19:28:18.135Z,23.09
2023-08-22T19:30:45.772Z,23.07
2023-08-22T19:35:43.967Z,23.03
2023-08-22T19:38:11.358Z,23.02
2023-08-22T19:40:43.877Z,22.97
2023-08-22T19:43:11.424Z,22.95
2023-08-22T19:45:38.965Z,22.87
2023-08-22T19:48:07.497Z,22.74
2023-08-22T19:50:34.881Z,22.71
2023-08-22T19:53:02.130Z,22.74
2023-08-22T19:55:30.293Z,22.76
2023-08-22T19:57:57.785Z,22.74
2023-08-22T20:00:25.291Z,22.68
2023-08-22T20:02:53.016Z,22.73
2023-08-22T20:05:22.030Z,22.74
2023-08-22T20:07:52.491Z,22.76
2023-08-22T20:10:20.251Z,22.67
2023-08-22T20:12:49.716Z,22.70
2023-08-22T20:15:17.292Z,22.69
2023-08-22T20:17:46.285Z,22.63
2023-08-22T20:20:14.221Z,22.63
2023-08-22T20:22:41.741Z,22.58
2023-08-22T20:25:09.436Z,22.57
2023-08-22T20:27:36.974Z,22.58
2023-08-22T20:30:04.962Z,22.56
2023-08-22T20:32:32.627Z,22.56
2023-08-22T20:35:00.036Z,22.56
2023-08-22T20:37:27.378Z,22.55
2023-08-22T20:39:54.633Z,22.48
2023-08-22T20:42:21.970Z,22.46
2023-08-22T20:44:49.311Z,22.45
2023-08-22T20:47:16.869Z,22.42
2023-08-22T20:49:44.848Z,22.39
2023-08-22T20:52:12.117Z,22.40
2023-08-22T20:54:39.421Z,22.37
2023-08-22T20:57:06.851Z,22.34
2023-08-22T20:59:34.134Z,22.30
2023-08-22T21:02:01.902Z,22.33
2023-08-22T21:04:29.594Z,22.30
2023-08-22T21:06:56.908Z,22.33
2023-08-22T21:09:24.367Z,22.35
2023-08-22T21:11:52.057Z,22.32
2023-08-22T21:14:19.475Z,22.32
2023-08-22T21:16:46.832Z,22.29
2023-08-22T21:19:14.317Z,22.27
2023-08-22T21:21:41.562Z,22.25
2023-08-22T21:24:09.047Z,22.19
2023-08-22T21:26:36.685Z,22.20
2023-08-22T21:29:15.004Z,22.12
2023-08-22T21:31:42.637Z,22.02
2023-08-22T21:34:10.478Z,21.89
2023-08-22T21:36:39.317Z,21.93
2023-08-22T21:39:06.756Z,21.93
2023-08-22T21:41:35.015Z,21.96
2023-08-22T21:44:02.437Z,21.90
2023-08-22T21:46:30.582Z,21.84
2023-08-22T21:48:57.929Z,21.79
2023-08-22T21:51:25.255Z,21.68
2023-08-22T21:53:52.801Z,21.70
2023-08-22T21:56:22.430Z,21.67
2023-08-22T21:58:49.970Z,21.69
2023-08-22T22:01:17.597Z,21.57
2023-08-22T22:03:45.113Z,21.60
2023-08-22T22:06:15.561Z,21.55
2023-08-22T22:08:43.041Z,21.55
2023-08-22T22:11:10.583Z,21.57
2023-08-22T22:13:38.015Z,21.54
2023-08-22T22:16:05.539Z,21.53
2023-08-22T22:18:32.873Z,21.52
2023-08-22T22:21:01.793Z,21.50
2023-08-22T22:23:29.479Z,21.47
2023-08-22T22:26:03.733Z,21.39
2023-08-22T22:28:32.053Z,21.39
2023-08-22T22:30:59.521Z,21.29
2023-08-22T22:33:27.226Z,21.29
2023-08-22T22:35:54.767Z,21.27
2023-08-22T22:38:22.160Z,21.28
2023-08-22T22:40:49.546Z,21.25
2023-08-22T22:43:16.851Z,21.24
2023-08-22T22:45:44.304Z,21.17
2023-08-22T22:48:12.004Z,21.08
2023-08-22T22:50:41.177Z,21.02
2023-08-22T22:53:08.568Z,21.08
2023-08-22T22:55:37.036Z,21.09
2023-08-22T22:58:04.618Z,21.09
2023-08-22T23:00:32.045Z,21.05
2023-08-22T23:02:59.712Z,21.02
2023-08-22T23:05:27.689Z,20.94
2023-08-22T23:07:55.163Z,20.98
2023-08-22T23:10:22.848Z,20.92
2023-08-22T23:12:50.676Z,20.92
2023-08-22T23:15:17.940Z,20.78
2023-08-22T23:17:46.624Z,20.70
2023-08-22T23:20:16.681Z,20.74
2023-08-22T23:22:46.429Z,20.74
2023-08-22T23:25:14.420Z,20.68
2023-08-22T23:27:42.323Z,20.68
2023-08-22T23:30:11.965Z,20.69
2023-08-22T23:32:39.361Z,20.65
2023-08-22T23:35:08.928Z,20.74
2023-08-22T23:37:36.257Z,20.63
2023-08-22T23:40:21.273Z,20.51
2023-08-22T23:42:50.671Z,20.45
2023-08-22T23:45:18.332Z,20.48
2023-08-22T23:47:45.960Z,20.46
2023-08-22T23:50:13.649Z,20.52
2023-08-22T23:52:41.300Z,20.53
2023-08-22T23:55:09.932Z,20.55
2023-08-22T23:57:37.814Z,20.47
